sensor_id;sensor_type;location;lat;lon;timestamp;pressure;altitude;pressure_sealevel;temperature;humidity
7614;BME280;3848;42.016;23.098;2023-04-09T00:02:00;97368.66;;;6.48;100.00
7614;BME280;3848;42.016;23.098;2023-04-09T00:04:26;97364.44;;;6.47;100.00
7614;BME280;3848;42.016;23.098;2023-04-09T00:06:53;97381.28;;;6.50;100.00
7614;BME280;3848;42.016;23.098;2023-04-09T00:09:20;97366.97;;;6.47;100.00
7614;BME280;3848;42.016;23.098;2023-04-09T00:11:47;97371.09;;;6.42;100.00
7614;BME280;3848;42.016;23.098;2023-04-09T00:14:15;97379.47;;;6.41;100.00
7614;BME280;3848;42.016;23.098;2023-04-09T00:16:41;97371.00;;;6.34;100.00
7614;BME280;3848;42.016;23.098;2023-04-09T00:19:08;97375.25;;;6.37;100.00
7614;BME280;3848;42.016;23.098;2023-04-09T00:21:36;97375.25;;;6.37;100.00
7614;BME280;3848;42.016;23.098;2023-04-09T00:24:03;97371.91;;;6.39;100.00
7614;BME280;3848;42.016;23.098;2023-04-09T00:26:31;97373.59;;;6.42;100.00
7614;BME280;3848;42.016;23.098;2023-04-09T00:28:57;97370.25;;;6.43;100.00
7614;BME280;3848;42.016;23.098;2023-04-09T00:31:26;97356.72;;;6.36;100.00
7614;BME280;3848;42.016;23.098;2023-04-09T00:33:53;97373.59;;;6.42;100.00
7614;BME280;3848;42.016;23.098;2023-04-09T00:36:19;97379.50;;;6.42;100.00
7614;BME280;3848;42.016;23.098;2023-04-09T00:38:47;97376.09;;;6.37;100.00
7614;BME280;3848;42.016;23.098;2023-04-09T00:41:16;97376.94;;;6.38;100.00
7614;BME280;3848;42.016;23.098;2023-04-09T00:43:43;97378.63;;;6.39;100.00
7614;BME280;3848;42.016;23.098;2023-04-09T00:46:10;97377.78;;;6.40;100.00
7614;BME280;3848;42.016;23.098;2023-04-09T00:48:38;97371.88;;;6.38;100.00
7614;BME280;3848;42.016;23.098;2023-04-09T00:51:06;97373.59;;;6.42;100.00
7614;BME280;3848;42.016;23.098;2023-04-09T00:53:34;97366.84;;;6.39;100.00
7614;BME280;3848;42.016;23.098;2023-04-09T00:56:01;97321.09;;;6.10;100.00
7614;BME280;3848;42.016;23.098;2023-04-09T00:58:28;97350.81;;;6.36;100.00
7614;BME280;3848;42.016;23.098;2023-04-09T01:00:55;97355.97;;;6.43;100.00
7614;BME280;3848;42.016;23.098;2023-04-09T01:03:22;97359.44;;;6.53;100.00
7614;BME280;3848;42.016;23.098;2023-04-09T01:05:55;97356.09;;;6.56;100.00
7614;BME280;3848;42.016;23.098;2023-04-09T01:08:31;97363.63;;;6.51;100.00
7614;BME280;3848;42.016;23.098;2023-04-09T01:11:05;97348.34;;;6.39;100.00
7614;BME280;3848;42.016;23.098;2023-04-09T01:13:43;97373.75;;;6.53;100.00
7614;BME280;3848;42.016;23.098;2023-04-09T01:16:15;97368.59;;;6.45;100.00
7614;BME280;3848;42.016;23.098;2023-04-09T01:18:46;97374.41;;;6.39;100.00
7614;BME280;3848;42.016;23.098;2023-04-09T01:21:20;97310.00;;;5.99;100.00
7614;BME280;3848;42.016;23.098;2023-04-09T01:23:56;97365.09;;;6.34;100.00
7614;BME280;3848;42.016;23.098;2023-04-09T01:26:35;97372.66;;;6.32;100.00
7614;BME280;3848;42.016;23.098;2023-04-09T01:29:06;97371.63;;;6.17;100.00
7614;BME280;3848;42.016;23.098;2023-04-09T01:31:36;97360.63;;;6.11;100.00
7614;BME280;3848;42.016;23.098;2023-04-09T01:34:05;97368.22;;;6.15;100.00
7614;BME280;3848;42.016;23.098;2023-04-09T01:36:33;97321.69;;;5.93;100.00
7614;BME280;3848;42.016;23.098;2023-04-09T01:39:01;97341.22;;;6.06;100.00
7614;BME280;3848;42.016;23.098;2023-04-09T01:41:30;97370.84;;;6.24;100.00
7614;BME280;3848;42.016;23.098;2023-04-09T01:43:59;97373.31;;;6.19;100.00
7614;BME280;3848;42.016;23.098;2023-04-09T01:46:28;97373.31;;;6.19;100.00
7614;BME280;3848;42.016;23.098;2023-04-09T01:48:56;97353.06;;;6.13;100.00
7614;BME280;3848;42.016;23.098;2023-04-09T01:51:24;97354.84;;;6.22;100.00
7614;BME280;3848;42.016;23.098;2023-04-09T01:53:52;97320.09;;;5.99;100.00
7614;BME280;3848;42.016;23.098;2023-04-09T01:56:19;97348.97;;;6.23;100.00
7614;BME280;3848;42.016;23.098;2023-04-09T01:58:45;97363.34;;;6.27;100.00
7614;BME280;3848;42.016;23.098;2023-04-09T02:01:21;97365.09;;;6.34;100.00
7614;BME280;3848;42.016;23.098;2023-04-09T02:03:53;97358.38;;;6.33;100.00
7614;BME280;3848;42.016;23.098;2023-04-09T02:06:25;97349.94;;;6.31;100.00
7614;BME280;3848;42.016;23.098;2023-04-09T02:08:57;97346.66;;;6.38;100.00
7614;BME280;3848;42.016;23.098;2023-04-09T02:11:28;97347.47;;;6.35;100.00
7614;BME280;3848;42.016;23.098;2023-04-09T02:13:55;97350.00;;;6.37;100.00
7614;BME280;3848;42.016;23.098;2023-04-09T02:16:24;97283.13;;;6.00;100.00
7614;BME280;3848;42.016;23.098;2023-04-09T02:18:53;97347.53;;;6.41;100.00
7614;BME280;3848;42.016;23.098;2023-04-09T02:21:21;97349.19;;;6.41;100.00
7614;BME280;3848;42.016;23.098;2023-04-09T02:23:48;97349.22;;;6.42;100.00
7614;BME280;3848;42.016;23.098;2023-04-09T02:26:15;97343.28;;;6.39;100.00
7614;BME280;3848;42.016;23.098;2023-04-09T02:28:41;97349.28;;;6.46;100.00
7614;BME280;3848;42.016;23.098;2023-04-09T02:31:08;97350.06;;;6.43;100.00
7614;BME280;3848;42.016;23.098;2023-04-09T02:33:35;97346.63;;;6.36;100.00
7614;BME280;3848;42.016;23.098;2023-04-09T02:36:04;97350.84;;;6.37;100.00
7614;BME280;3848;42.016;23.098;2023-04-09T02:38:31;97344.09;;;6.36;100.00
7614;BME280;3848;42.016;23.098;2023-04-09T02:40:58;97336.47;;;6.30;100.00
7614;BME280;3848;42.016;23.098;2023-04-09T02:43:25;97338.06;;;6.24;100.00
7614;BME280;3848;42.016;23.098;2023-04-09T02:45:51;97345.59;;;6.22;100.00
7614;BME280;3848;42.016;23.098;2023-04-09T02:48:18;97342.22;;;6.20;100.00
7614;BME280;3848;42.016;23.098;2023-04-09T02:50:45;97348.06;;;6.18;100.00
7614;BME280;3848;42.016;23.098;2023-04-09T02:53:13;97350.63;;;6.19;100.00
7614;BME280;3848;42.016;23.098;2023-04-09T02:55:40;97346.38;;;6.17;100.00
7614;BME280;3848;42.016;23.098;2023-04-09T02:58:07;97342.94;;;6.08;100.00
7614;BME280;3848;42.016;23.098;2023-04-09T03:00:34;97348.78;;;6.06;100.00
7614;BME280;3848;42.016;23.098;2023-04-09T03:03:00;97347.13;;;6.06;100.00
7614;BME280;3848;42.016;23.098;2023-04-09T03:05:27;97343.81;;;6.12;100.00
7614;BME280;3848;42.016;23.098;2023-04-09T03:07:54;97341.25;;;6.07;100.00
7614;BME280;3848;42.016;23.098;2023-04-09T03:10:23;97335.34;;;6.07;100.00
7614;BME280;3848;42.016;23.098;2023-04-09T03:12:50;97342.88;;;6.04;100.00
7614;BME280;3848;42.016;23.098;2023-04-09T03:15:16;97331.03;;;6.00;100.00
7614;BME280;3848;42.016;23.098;2023-04-09T03:17:43;97342.13;;;6.11;100.00
7614;BME280;3848;42.016;23.098;2023-04-09T03:20:10;97337.13;;;6.17;100.00
7614;BME280;3848;42.016;23.098;2023-04-09T03:22:37;97341.41;;;6.23;100.00
7614;BME280;3848;42.016;23.098;2023-04-09T03:25:04;97341.41;;;6.23;100.00
7614;BME280;3848;42.016;23.098;2023-04-09T03:27:32;97346.53;;;6.26;100.00
7614;BME280;3848;42.016;23.098;2023-04-09T03:29:59;97339.78;;;6.25;100.00
7614;BME280;3848;42.016;23.098;2023-04-09T03:32:26;97340.72;;;6.33;100.00
7614;BME280;3848;42.016;23.098;2023-04-09T03:34:53;97346.66;;;6.39;100.00
7614;BME280;3848;42.016;23.098;2023-04-09T03:37:20;97351.69;;;6.38;100.00
7614;BME280;3848;42.016;23.098;2023-04-09T03:39:47;97339.94;;;6.40;100.00
7614;BME280;3848;42.016;23.098;2023-04-09T03:42:13;97343.31;;;6.42;100.00
7614;BME280;3848;42.016;23.098;2023-04-09T03:44:41;97352.59;;;6.43;100.00
7614;BME280;3848;42.016;23.098;2023-04-09T03:47:08;97358.47;;;6.42;100.00
7614;BME280;3848;42.016;23.098;2023-04-09T03:49:35;97353.50;;;6.47;100.00
7614;BME280;3848;42.016;23.098;2023-04-09T03:52:05;97361.94;;;6.50;100.00
7614;BME280;3848;42.016;23.098;2023-04-09T03:54:32;97362.78;;;6.51;100.00
7614;BME280;3848;42.016;23.098;2023-04-09T03:56:59;97364.50;;;6.53;100.00
7614;BME280;3848;42.016;23.098;2023-04-09T03:59:25;97373.56;;;6.39;100.00
7614;BME280;3848;42.016;23.098;2023-04-09T04:01:53;97372.72;;;6.38;100.00
7614;BME280;3848;42.016;23.098;2023-04-09T04:04:20;97374.34;;;6.33;100.00
7614;BME280;3848;42.016;23.098;2023-04-09T04:06:47;97376.09;;;6.39;100.00
7614;BME280;3848;42.016;23.098;2023-04-09T04:09:14;97372.75;;;6.41;100.00
7614;BME280;3848;42.016;23.098;2023-04-09T04:11:40;97375.31;;;6.43;100.00
7614;BME280;3848;42.016;23.098;2023-04-09T04:14:07;97375.31;;;6.43;100.00
7614;BME280;3848;42.016;23.098;2023-04-09T04:16:34;97380.44;;;6.49;100.00
7614;BME280;3848;42.016;23.098;2023-04-09T04:19:02;97376.25;;;6.50;100.00
7614;BME280;3848;42.016;23.098;2023-04-09T04:21:29;97380.41;;;6.46;100.00
7614;BME280;3848;42.016;23.098;2023-04-09T04:23:56;97387.19;;;6.50;100.00
7614;BME280;3848;42.016;23.098;2023-04-09T04:26:23;97383.69;;;6.42;100.00
7614;BME280;3848;42.016;23.098;2023-04-09T04:28:49;97383.03;;;6.55;100.00
7614;BME280;3848;42.016;23.098;2023-04-09T04:31:16;97379.59;;;6.49;100.00
7614;BME280;3848;42.016;23.098;2023-04-09T04:33:43;97394.03;;;6.60;100.00
7614;BME280;3848;42.016;23.098;2023-04-09T04:36:12;97403.41;;;6.69;100.00
7614;BME280;3848;42.016;23.098;2023-04-09T04:38:39;97384.81;;;6.64;100.00
7614;BME280;3848;42.016;23.098;2023-04-09T04:41:07;97378.00;;;6.58;100.00
7614;BME280;3848;42.016;23.098;2023-04-09T04:43:33;97330.63;;;6.34;100.00
7614;BME280;3848;42.016;23.098;2023-04-09T04:46:00;97395.09;;;6.79;100.00
7614;BME280;3848;42.016;23.098;2023-04-09T04:48:28;97411.22;;;6.92;100.00
7614;BME280;3848;42.016;23.098;2023-04-09T04:50:56;97346.94;;;6.64;100.00
7614;BME280;3848;42.016;23.098;2023-04-09T04:53:24;97414.81;;;7.12;100.00
7614;BME280;3848;42.016;23.098;2023-04-09T04:55:52;97414.72;;;7.06;100.00
7614;BME280;3848;42.016;23.098;2023-04-09T04:58:18;97407.13;;;7.03;100.00
7614;BME280;3848;42.016;23.098;2023-04-09T05:00:45;97408.81;;;7.04;100.00
7614;BME280;3848;42.016;23.098;2023-04-09T05:03:12;97414.72;;;7.04;100.00
7614;BME280;3848;42.016;23.098;2023-04-09T05:05:39;97407.09;;;7.00;100.00
7614;BME280;3848;42.016;23.098;2023-04-09T05:08:06;97407.09;;;7.00;100.00
7614;BME280;3848;42.016;23.098;2023-04-09T05:10:34;97407.16;;;7.08;100.00
7614;BME280;3848;42.016;23.098;2023-04-09T05:13:01;97411.41;;;7.10;100.00
7614;BME280;3848;42.016;23.098;2023-04-09T05:15:28;97399.63;;;7.09;100.00
7614;BME280;3848;42.016;23.098;2023-04-09T05:17:55;97398.00;;;7.17;100.00
7614;BME280;3848;42.016;23.098;2023-04-09T05:20:22;97405.66;;;7.25;100.00
7614;BME280;3848;42.016;23.098;2023-04-09T05:22:49;97399.78;;;7.27;100.00
7614;BME280;3848;42.016;23.098;2023-04-09T05:25:16;97410.81;;;7.34;100.00
7614;BME280;3848;42.016;23.098;2023-04-09T05:27:44;97406.63;;;7.38;100.00
7614;BME280;3848;42.016;23.098;2023-04-09T05:30:11;97406.66;;;7.44;100.00
7614;BME280;3848;42.016;23.098;2023-04-09T05:32:39;97407.53;;;7.47;100.00
7614;BME280;3848;42.016;23.098;2023-04-09T05:35:06;97409.34;;;7.63;100.00
7614;BME280;3848;42.016;23.098;2023-04-09T05:37:33;97402.59;;;7.62;100.00
7614;BME280;3848;42.016;23.098;2023-04-09T05:40:00;97408.56;;;7.69;100.00
7614;BME280;3848;42.016;23.098;2023-04-09T05:42:27;97395.91;;;7.68;100.00
7614;BME280;3848;42.016;23.098;2023-04-09T05:44:56;97409.47;;;7.77;100.00
7614;BME280;3848;42.016;23.098;2023-04-09T05:47:22;97406.13;;;7.83;100.00
7614;BME280;3848;42.016;23.098;2023-04-09T05:49:49;97390.97;;;7.87;100.00
7614;BME280;3848;42.016;23.098;2023-04-09T05:52:16;97393.59;;;7.97;100.00
7614;BME280;3848;42.016;23.098;2023-04-09T05:54:44;97398.69;;;8.04;100.00
7614;BME280;3848;42.016;23.098;2023-04-09T05:57:10;97399.53;;;8.02;100.00
7614;BME280;3848;42.016;23.098;2023-04-09T05:59:37;97412.19;;;8.06;100.00
7614;BME280;3848;42.016;23.098;2023-04-09T06:02:05;97402.06;;;8.08;100.00
7614;BME280;3848;42.016;23.098;2023-04-09T06:04:32;97404.63;;;8.09;100.00
7614;BME280;3848;42.016;23.098;2023-04-09T06:06:59;97401.25;;;8.10;100.00
7614;BME280;3848;42.016;23.098;2023-04-09T06:09:26;97398.81;;;8.27;100.00
7614;BME280;3848;42.016;23.098;2023-04-09T06:11:52;97387.00;;;8.32;100.00
7614;BME280;3848;42.016;23.098;2023-04-09T06:14:20;97399.00;;;8.56;100.00
7614;BME280;3848;42.016;23.098;2023-04-09T06:16:46;97399.06;;;8.76;100.00
7614;BME280;3848;42.016;23.098;2023-04-09T06:19:16;97396.53;;;8.76;100.00
7614;BME280;3848;42.016;23.098;2023-04-09T06:21:42;97402.47;;;8.89;100.00
7614;BME280;3848;42.016;23.098;2023-04-09T06:24:09;97372.91;;;8.75;100.00
7614;BME280;3848;42.016;23.098;2023-04-09T06:26:36;97405.91;;;9.01;100.00
7614;BME280;3848;42.016;23.098;2023-04-09T06:29:03;97407.59;;;9.07;100.00
7614;BME280;3848;42.016;23.098;2023-04-09T06:31:30;97412.66;;;9.11;100.00
7614;BME280;3848;42.016;23.098;2023-04-09T06:33:56;97410.13;;;9.11;100.00
7614;BME280;3848;42.016;23.098;2023-04-09T06:36:25;97410.13;;;9.10;100.00
7614;BME280;3848;42.016;23.098;2023-04-09T06:38:52;97412.66;;;9.05;100.00
7614;BME280;3848;42.016;23.098;2023-04-09T06:41:19;97414.34;;;9.05;100.00
7614;BME280;3848;42.016;23.098;2023-04-09T06:43:46;97410.97;;;9.10;100.00
7614;BME280;3848;42.016;23.098;2023-04-09T06:46:13;97405.91;;;9.13;100.00
7614;BME280;3848;42.016;23.098;2023-04-09T06:48:41;97398.34;;;9.27;100.00
7614;BME280;3848;42.016;23.098;2023-04-09T06:51:09;97400.88;;;9.35;100.00
7614;BME280;3848;42.016;23.098;2023-04-09T06:53:37;97391.56;;;9.34;100.00
7614;BME280;3848;42.016;23.098;2023-04-09T06:56:06;97395.81;;;9.41;100.00
7614;BME280;3848;42.016;23.098;2023-04-09T06:58:33;97390.75;;;9.58;100.00
7614;BME280;3848;42.016;23.098;2023-04-09T07:00:59;97394.13;;;9.70;100.00
7614;BME280;3848;42.016;23.098;2023-04-09T07:03:27;97380.59;;;9.81;100.00
7614;BME280;3848;42.016;23.098;2023-04-09T07:05:54;97389.88;;;10.01;100.00
7614;BME280;3848;42.016;23.098;2023-04-09T07:08:22;97364.50;;;9.94;100.00
7614;BME280;3848;42.016;23.098;2023-04-09T07:10:50;97394.94;;;10.26;100.00
7614;BME280;3848;42.016;23.098;2023-04-09T07:13:17;97389.81;;;10.43;100.00
7614;BME280;3848;42.016;23.098;2023-04-09T07:15:44;97377.97;;;10.34;100.00
7614;BME280;3848;42.016;23.098;2023-04-09T07:18:10;97378.78;;;10.48;100.00
7614;BME280;3848;42.016;23.098;2023-04-09T07:20:37;97377.00;;;10.61;100.00
7614;BME280;3848;42.016;23.098;2023-04-09T07:23:04;97376.13;;;10.71;100.00
7614;BME280;3848;42.016;23.098;2023-04-09T07:25:31;97375.22;;;10.87;100.00
7614;BME280;3848;42.016;23.098;2023-04-09T07:27:59;97375.09;;;11.09;100.00
7614;BME280;3848;42.016;23.098;2023-04-09T07:30:26;97389.41;;;11.26;100.00
7614;BME280;3848;42.016;23.098;2023-04-09T07:32:53;97381.81;;;11.17;100.00
7614;BME280;3848;42.016;23.098;2023-04-09T07:35:20;97381.75;;;11.28;100.00
7614;BME280;3848;42.016;23.098;2023-04-09T07:37:47;97377.41;;;11.39;100.00
7614;BME280;3848;42.016;23.098;2023-04-09T07:40:14;97379.09;;;11.40;100.00
7614;BME280;3848;42.016;23.098;2023-04-09T07:42:40;97373.16;;;11.41;100.00
7614;BME280;3848;42.016;23.098;2023-04-09T07:45:09;97374.84;;;11.42;100.00
7614;BME280;3848;42.016;23.098;2023-04-09T07:47:37;97373.94;;;11.52;100.00
7614;BME280;3848;42.016;23.098;2023-04-09T07:50:05;97375.56;;;11.59;100.00
7614;BME280;3848;42.016;23.098;2023-04-09T07:52:32;97377.38;;;11.47;100.00
7614;BME280;3848;42.016;23.098;2023-04-09T07:54:59;97375.69;;;11.43;100.00
7614;BME280;3848;42.016;23.098;2023-04-09T07:57:26;97378.22;;;11.47;100.00
7614;BME280;3848;42.016;23.098;2023-04-09T07:59:53;97386.56;;;11.63;100.00
7614;BME280;3848;42.016;23.098;2023-04-09T08:02:22;97392.50;;;11.67;100.00
7614;BME280;3848;42.016;23.098;2023-04-09T08:04:49;97384.94;;;11.54;100.00
7614;BME280;3848;42.016;23.098;2023-04-09T08:07:16;97395.06;;;11.60;100.00
7614;BME280;3848;42.016;23.098;2023-04-09T08:09:43;97390.00;;;11.57;100.00
7614;BME280;3848;42.016;23.098;2023-04-09T08:12:10;97386.56;;;11.61;100.00
7614;BME280;3848;42.016;23.098;2023-04-09T08:14:37;97388.25;;;11.64;100.00
7614;BME280;3848;42.016;23.098;2023-04-09T08:17:04;97378.91;;;11.65;100.00
7614;BME280;3848;42.016;23.098;2023-04-09T08:19:32;97394.13;;;11.74;100.00
7614;BME280;3848;42.016;23.098;2023-04-09T08:21:59;97395.78;;;11.81;100.00
7614;BME280;3848;42.016;23.098;2023-04-09T08:24:26;97389.78;;;11.88;100.00
7614;BME280;3848;42.016;23.098;2023-04-09T08:26:53;97388.91;;;11.92;100.00
7614;BME280;3848;42.016;23.098;2023-04-09T08:29:20;97385.50;;;11.92;100.00
7614;BME280;3848;42.016;23.098;2023-04-09T08:31:47;97389.66;;;12.02;100.00
7614;BME280;3848;42.016;23.098;2023-04-09T08:34:15;97386.97;;;12.15;100.00
7614;BME280;3848;42.016;23.098;2023-04-09T08:36:46;97389.41;;;12.25;100.00
7614;BME280;3848;42.016;23.098;2023-04-09T08:39:14;97386.81;;;12.32;100.00
7614;BME280;3848;42.016;23.098;2023-04-09T08:41:44;97299.84;;;11.83;100.00
7614;BME280;3848;42.016;23.098;2023-04-09T08:44:11;97394.47;;;12.29;100.00
7614;BME280;3848;42.016;23.098;2023-04-09T08:46:38;97364.97;;;12.08;100.00
7614;BME280;3848;42.016;23.098;2023-04-09T08:49:07;97386.16;;;12.13;100.00
7614;BME280;3848;42.016;23.098;2023-04-09T08:51:35;97378.41;;;12.21;100.00
7614;BME280;3848;42.016;23.098;2023-04-09T08:54:05;97379.13;;;12.34;100.00
7614;BME280;3848;42.016;23.098;2023-04-09T08:56:32;97378.94;;;12.52;100.00
7614;BME280;3848;42.016;23.098;2023-04-09T08:58:59;97371.94;;;12.66;100.00
7614;BME280;3848;42.016;23.098;2023-04-09T09:01:27;97369.94;;;12.91;100.00
7614;BME280;3848;42.016;23.098;2023-04-09T09:03:55;97376.59;;;13.01;100.00
7614;BME280;3848;42.016;23.098;2023-04-09T09:06:24;97377.28;;;13.14;100.00
7614;BME280;3848;42.016;23.098;2023-04-09T09:09:03;97379.03;;;13.09;100.00
7614;BME280;3848;42.016;23.098;2023-04-09T09:11:32;97374.84;;;13.05;100.00
7614;BME280;3848;42.016;23.098;2023-04-09T09:14:00;97368.84;;;13.07;100.00
7614;BME280;3848;42.016;23.098;2023-04-09T09:16:28;97366.03;;;13.27;100.00
7614;BME280;3848;42.016;23.098;2023-04-09T09:18:55;97355.69;;;13.38;100.00
7614;BME280;3848;42.016;23.098;2023-04-09T09:21:22;97354.41;;;13.63;100.00
7614;BME280;3848;42.016;23.098;2023-04-09T09:23:50;97349.06;;;13.77;100.00
7614;BME280;3848;42.016;23.098;2023-04-09T09:26:19;97350.75;;;13.78;100.00
7614;BME280;3848;42.016;23.098;2023-04-09T09:28:48;97345.41;;;13.90;100.00
7614;BME280;3848;42.016;23.098;2023-04-09T09:31:16;97349.50;;;14.00;100.00
7614;BME280;3848;42.016;23.098;2023-04-09T09:33:44;97344.84;;;13.76;97.67
7614;BME280;3848;42.016;23.098;2023-04-09T09:36:12;97329.72;;;13.64;100.00
7614;BME280;3848;42.016;23.098;2023-04-09T09:38:52;97339.50;;;13.88;100.00
7614;BME280;3848;42.016;23.098;2023-04-09T09:41:19;97343.91;;;13.80;99.13
7614;BME280;3848;42.016;23.098;2023-04-09T09:43:48;97334.41;;;13.88;100.00
7614;BME280;3848;42.016;23.098;2023-04-09T09:46:15;97345.97;;;14.08;96.82
7614;BME280;3848;42.016;23.098;2023-04-09T09:48:43;97297.81;;;13.86;99.86
7614;BME280;3848;42.016;23.098;2023-04-09T09:51:12;97341.81;;;14.48;94.52
7614;BME280;3848;42.016;23.098;2023-04-09T09:53:42;97342.91;;;14.77;89.42
7614;BME280;3848;42.016;23.098;2023-04-09T09:56:14;97339.84;;;15.01;94.30
7614;BME280;3848;42.016;23.098;2023-04-09T09:58:47;97336.78;;;15.22;85.99
7614;BME280;3848;42.016;23.098;2023-04-09T10:01:19;97339.78;;;15.40;84.40
7614;BME280;3848;42.016;23.098;2023-04-09T10:03:49;97336.28;;;15.44;80.22
7614;BME280;3848;42.016;23.098;2023-04-09T10:06:17;97327.09;;;15.35;83.84
7614;BME280;3848;42.016;23.098;2023-04-09T10:08:47;97330.91;;;15.17;80.85
7614;BME280;3848;42.016;23.098;2023-04-09T10:11:15;97314.81;;;15.12;86.12
7614;BME280;3848;42.016;23.098;2023-04-09T10:13:47;97321.34;;;15.25;85.04
7614;BME280;3848;42.016;23.098;2023-04-09T10:16:17;97318.44;;;15.39;81.82
7614;BME280;3848;42.016;23.098;2023-04-09T10:18:44;97313.78;;;15.55;79.87
7614;BME280;3848;42.016;23.098;2023-04-09T10:21:13;97312.13;;;15.54;72.25
7614;BME280;3848;42.016;23.098;2023-04-09T10:23:44;97304.88;;;15.36;70.79
7614;BME280;3848;42.016;23.098;2023-04-09T10:26:13;97316.31;;;15.22;69.98
7614;BME280;3848;42.016;23.098;2023-04-09T10:28:42;97308.63;;;15.22;72.62
7614;BME280;3848;42.016;23.098;2023-04-09T10:31:09;97310.28;;;15.25;73.20
7614;BME280;3848;42.016;23.098;2023-04-09T10:33:37;97308.47;;;15.29;77.40
7614;BME280;3848;42.016;23.098;2023-04-09T10:36:09;97294.75;;;15.31;76.21
7614;BME280;3848;42.016;23.098;2023-04-09T10:38:37;97301.44;;;15.37;74.96
7614;BME280;3848;42.016;23.098;2023-04-09T10:41:21;97293.69;;;15.40;76.86
7614;BME280;3848;42.016;23.098;2023-04-09T10:43:48;97303.47;;;15.24;70.93
7614;BME280;3848;42.016;23.098;2023-04-09T10:46:26;97297.88;;;15.08;72.98
7614;BME280;3848;42.016;23.098;2023-04-09T10:49:12;97293.69;;;15.04;83.06
7614;BME280;3848;42.016;23.098;2023-04-09T10:51:42;97296.22;;;15.06;78.26
7614;BME280;3848;42.016;23.098;2023-04-09T10:54:36;97290.16;;;15.10;78.58
7614;BME280;3848;42.016;23.098;2023-04-09T10:57:09;97291.03;;;15.09;71.22
7614;BME280;3848;42.016;23.098;2023-04-09T10:59:39;97273.47;;;14.93;70.14
7614;BME280;3848;42.016;23.098;2023-04-09T11:02:07;97266.53;;;14.97;70.14
7614;BME280;3848;42.016;23.098;2023-04-09T11:04:44;97257.88;;;15.04;70.54
7614;BME280;3848;42.016;23.098;2023-04-09T11:07:18;97268.56;;;15.20;71.57
7614;BME280;3848;42.016;23.098;2023-04-09T11:09:47;97272.84;;;15.21;69.44
7614;BME280;3848;42.016;23.098;2023-04-09T11:12:14;97268.59;;;15.18;69.06
7614;BME280;3848;42.016;23.098;2023-04-09T11:14:41;97265.22;;;15.16;68.52
7614;BME280;3848;42.016;23.098;2023-04-09T11:17:08;97256.72;;;15.16;72.36
7614;BME280;3848;42.016;23.098;2023-04-09T11:19:36;97261.94;;;15.11;71.50
7614;BME280;3848;42.016;23.098;2023-04-09T11:22:04;97266.03;;;15.18;77.43
7614;BME280;3848;42.016;23.098;2023-04-09T11:24:39;97263.28;;;15.28;77.11
7614;BME280;3848;42.016;23.098;2023-04-09T11:27:06;97263.91;;;15.36;77.64
7614;BME280;3848;42.016;23.098;2023-04-09T11:29:33;97264.00;;;15.33;76.04
7614;BME280;3848;42.016;23.098;2023-04-09T11:32:00;97254.31;;;15.10;86.45
7614;BME280;3848;42.016;23.098;2023-04-09T11:34:29;97254.16;;;15.16;94.59
7614;BME280;3848;42.016;23.098;2023-04-09T11:36:58;97251.78;;;15.08;92.23
7614;BME280;3848;42.016;23.098;2023-04-09T11:39:29;97256.03;;;15.09;96.36
7614;BME280;3848;42.016;23.098;2023-04-09T11:41:56;97252.28;;;14.87;93.97
7614;BME280;3848;42.016;23.098;2023-04-09T11:44:23;97256.72;;;14.80;98.13
7614;BME280;3848;42.016;23.098;2023-04-09T11:46:50;97249.13;;;14.76;100.00
7614;BME280;3848;42.016;23.098;2023-04-09T11:49:17;97261.19;;;14.71;100.00
7614;BME280;3848;42.016;23.098;2023-04-09T11:51:43;97261.22;;;14.69;100.00
7614;BME280;3848;42.016;23.098;2023-04-09T11:54:12;97258.56;;;14.74;100.00
7614;BME280;3848;42.016;23.098;2023-04-09T11:56:39;97256.88;;;14.73;100.00
7614;BME280;3848;42.016;23.098;2023-04-09T11:59:06;97250.97;;;14.71;100.00
7614;BME280;3848;42.016;23.098;2023-04-09T12:01:32;97244.41;;;14.57;100.00
7614;BME280;3848;42.016;23.098;2023-04-09T12:04:00;97245.41;;;14.52;100.00
7614;BME280;3848;42.016;23.098;2023-04-09T12:06:27;97245.69;;;14.38;100.00
7614;BME280;3848;42.016;23.098;2023-04-09T12:08:55;97242.22;;;14.41;100.00
7614;BME280;3848;42.016;23.098;2023-04-09T12:11:28;97243.44;;;14.23;100.00
7614;BME280;3848;42.016;23.098;2023-04-09T12:13:59;97245.16;;;14.22;100.00
7614;BME280;3848;42.016;23.098;2023-04-09T12:16:28;97244.56;;;14.10;100.00
7614;BME280;3848;42.016;23.098;2023-04-09T12:18:55;97219.63;;;13.79;100.00
7614;BME280;3848;42.016;23.098;2023-04-09T12:21:23;97237.50;;;13.79;100.00
7614;BME280;3848;42.016;23.098;2023-04-09T12:23:50;97236.75;;;13.72;100.00
7614;BME280;3848;42.016;23.098;2023-04-09T12:26:17;97223.44;;;13.58;100.00
7614;BME280;3848;42.016;23.098;2023-04-09T12:28:45;97232.88;;;13.53;100.00
7614;BME280;3848;42.016;23.098;2023-04-09T12:31:12;97221.06;;;13.48;100.00
7614;BME280;3848;42.016;23.098;2023-04-09T12:33:38;97222.81;;;13.46;100.00
7614;BME280;3848;42.016;23.098;2023-04-09T12:36:05;97227.22;;;13.37;100.00
7614;BME280;3848;42.016;23.098;2023-04-09T12:38:32;97216.22;;;13.34;100.00
7614;BME280;3848;42.016;23.098;2023-04-09T12:40:59;97228.16;;;13.30;100.00
7614;BME280;3848;42.016;23.098;2023-04-09T12:43:26;97212.94;;;13.26;100.00
7614;BME280;3848;42.016;23.098;2023-04-09T12:45:54;97204.53;;;13.21;100.00
7614;BME280;3848;42.016;23.098;2023-04-09T12:48:20;97221.38;;;13.29;100.00
7614;BME280;3848;42.016;23.098;2023-04-09T12:50:47;97215.34;;;13.35;100.00
7614;BME280;3848;42.016;23.098;2023-04-09T12:53:14;97205.19;;;13.30;100.00
7614;BME280;3848;42.016;23.098;2023-04-09T12:55:41;97211.94;;;13.36;100.00
7614;BME280;3848;42.016;23.098;2023-04-09T12:58:08;97217.09;;;13.33;100.00
7614;BME280;3848;42.016;23.098;2023-04-09T13:00:35;97152.28;;;12.91;100.00
7614;BME280;3848;42.016;23.098;2023-04-09T13:03:03;97065.69;;;12.35;100.00
7614;BME280;3848;42.016;23.098;2023-04-09T13:05:29;97191.03;;;13.14;100.00
7614;BME280;3848;42.016;23.098;2023-04-09T13:07:59;97206.28;;;13.17;100.00
7614;BME280;3848;42.016;23.098;2023-04-09T13:10:28;97200.34;;;13.15;100.00
7614;BME280;3848;42.016;23.098;2023-04-09T13:12:55;97182.75;;;13.00;100.00